sensor_id;sensor_type;location;lat;lon;timestamp;P1;durP1;ratioP1;P2;durP2;ratioP2
23101;SDS011;11720;51.214;22.574;2023-07-31T00:00:27;5.03;;;3.72;;
23101;SDS011;11720;51.214;22.574;2023-07-31T00:02:53;6.10;;;3.80;;
23101;SDS011;11720;51.214;22.574;2023-07-31T00:05:20;4.88;;;3.53;;
23101;SDS011;11720;51.214;22.574;2023-07-31T00:07:46;5.38;;;3.35;;
23101;SDS011;11720;51.214;22.574;2023-07-31T00:10:11;4.90;;;3.88;;
23101;SDS011;11720;51.214;22.574;2023-07-31T00:12:38;3.95;;;3.15;;
23101;SDS011;11720;51.214;22.574;2023-07-31T00:15:05;4.93;;;4.10;;
23101;SDS011;11720;51.214;22.574;2023-07-31T00:17:31;5.35;;;4.10;;
23101;SDS011;11720;51.214;22.574;2023-07-31T00:19:57;4.10;;;3.38;;
23101;SDS011;11720;51.214;22.574;2023-07-31T00:22:22;7.18;;;3.53;;
23101;SDS011;11720;51.214;22.574;2023-07-31T00:24:48;5.30;;;3.78;;
23101;SDS011;11720;51.214;22.574;2023-07-31T00:27:14;3.70;;;3.30;;
23101;SDS011;11720;51.214;22.574;2023-07-31T00:29:40;5.95;;;3.85;;
23101;SDS011;11720;51.214;22.574;2023-07-31T00:32:05;7.63;;;3.70;;
23101;SDS011;11720;51.214;22.574;2023-07-31T00:34:32;4.07;;;3.17;;
23101;SDS011;11720;51.214;22.574;2023-07-31T00:36:57;5.57;;;4.05;;
23101;SDS011;11720;51.214;22.574;2023-07-31T00:39:23;7.88;;;3.90;;
23101;SDS011;11720;51.214;22.574;2023-07-31T00:41:49;6.47;;;3.80;;
23101;SDS011;11720;51.214;22.574;2023-07-31T00:44:14;5.90;;;4.22;;
23101;SDS011;11720;51.214;22.574;2023-07-31T00:46:40;4.88;;;3.40;;
23101;SDS011;11720;51.214;22.574;2023-07-31T00:49:05;6.45;;;3.72;;
23101;SDS011;11720;51.214;22.574;2023-07-31T00:51:32;4.70;;;3.50;;
23101;SDS011;11720;51.214;22.574;2023-07-31T00:53:58;7.75;;;3.30;;
23101;SDS011;11720;51.214;22.574;2023-07-31T00:56:24;4.15;;;3.63;;
23101;SDS011;11720;51.214;22.574;2023-07-31T00:58:50;4.80;;;3.65;;
23101;SDS011;11720;51.214;22.574;2023-07-31T01:01:16;6.32;;;4.43;;
23101;SDS011;11720;51.214;22.574;2023-07-31T01:03:42;3.92;;;3.40;;
23101;SDS011;11720;51.214;22.574;2023-07-31T01:11:38;7.22;;;4.07;;
23101;SDS011;11720;51.214;22.574;2023-07-31T01:14:16;4.10;;;3.10;;
23101;SDS011;11720;51.214;22.574;2023-07-31T01:16:41;4.63;;;3.50;;
23101;SDS011;11720;51.214;22.574;2023-07-31T01:19:07;7.75;;;4.10;;
23101;SDS011;11720;51.214;22.574;2023-07-31T01:24:20;4.40;;;3.83;;
23101;SDS011;11720;51.214;22.574;2023-07-31T01:27:10;4.47;;;3.33;;
23101;SDS011;11720;51.214;22.574;2023-07-31T01:32:11;5.88;;;3.75;;
23101;SDS011;11720;51.214;22.574;2023-07-31T01:34:38;6.25;;;3.65;;
23101;SDS011;11720;51.214;22.574;2023-07-31T01:37:06;6.82;;;3.80;;
23101;SDS011;11720;51.214;22.574;2023-07-31T01:39:32;6.38;;;3.20;;
23101;SDS011;11720;51.214;22.574;2023-07-31T01:41:57;7.20;;;3.33;;
23101;SDS011;11720;51.214;22.574;2023-07-31T01:44:23;4.00;;;3.45;;
23101;SDS011;11720;51.214;22.574;2023-07-31T01:46:49;5.65;;;3.78;;
23101;SDS011;11720;51.214;22.574;2023-07-31T01:49:14;4.43;;;3.50;;
23101;SDS011;11720;51.214;22.574;2023-07-31T01:51:40;4.53;;;3.53;;
23101;SDS011;11720;51.214;22.574;2023-07-31T01:54:05;5.90;;;3.83;;
23101;SDS011;11720;51.214;22.574;2023-07-31T01:56:31;4.43;;;3.58;;
23101;SDS011;11720;51.214;22.574;2023-07-31T01:58:57;5.93;;;3.55;;
23101;SDS011;11720;51.214;22.574;2023-07-31T02:01:22;6.03;;;3.80;;
23101;SDS011;11720;51.214;22.574;2023-07-31T02:03:48;6.60;;;3.90;;
23101;SDS011;11720;51.214;22.574;2023-07-31T02:06:14;6.38;;;3.80;;
23101;SDS011;11720;51.214;22.574;2023-07-31T02:08:39;7.50;;;3.50;;
23101;SDS011;11720;51.214;22.574;2023-07-31T02:11:05;4.63;;;3.20;;
23101;SDS011;11720;51.214;22.574;2023-07-31T02:13:31;4.22;;;3.35;;
23101;SDS011;11720;51.214;22.574;2023-07-31T02:15:56;7.63;;;3.38;;
23101;SDS011;11720;51.214;22.574;2023-07-31T02:18:22;5.25;;;3.55;;
23101;SDS011;11720;51.214;22.574;2023-07-31T02:20:49;4.60;;;3.25;;
23101;SDS011;11720;51.214;22.574;2023-07-31T02:23:16;6.07;;;3.67;;
23101;SDS011;11720;51.214;22.574;2023-07-31T02:25:45;3.88;;;3.40;;
23101;SDS011;11720;51.214;22.574;2023-07-31T02:28:11;6.65;;;3.38;;
23101;SDS011;11720;51.214;22.574;2023-07-31T02:30:37;4.30;;;3.35;;
23101;SDS011;11720;51.214;22.574;2023-07-31T02:33:03;7.22;;;4.20;;
23101;SDS011;11720;51.214;22.574;2023-07-31T02:35:29;5.78;;;3.42;;
23101;SDS011;11720;51.214;22.574;2023-07-31T02:37:55;9.32;;;3.50;;
23101;SDS011;11720;51.214;22.574;2023-07-31T02:40:21;4.03;;;2.50;;
23101;SDS011;11720;51.214;22.574;2023-07-31T02:42:46;4.50;;;3.38;;
23101;SDS011;11720;51.214;22.574;2023-07-31T02:45:12;4.45;;;3.00;;
23101;SDS011;11720;51.214;22.574;2023-07-31T02:47:38;6.03;;;3.40;;
23101;SDS011;11720;51.214;22.574;2023-07-31T02:50:03;3.97;;;3.30;;
23101;SDS011;11720;51.214;22.574;2023-07-31T02:52:30;3.80;;;2.78;;
23101;SDS011;11720;51.214;22.574;2023-07-31T02:54:55;5.00;;;3.05;;
23101;SDS011;11720;51.214;22.574;2023-07-31T02:57:22;6.20;;;2.95;;
23101;SDS011;11720;51.214;22.574;2023-07-31T02:59:48;3.67;;;3.03;;
23101;SDS011;11720;51.214;22.574;2023-07-31T03:02:15;3.45;;;3.15;;
23101;SDS011;11720;51.214;22.574;2023-07-31T03:04:40;7.65;;;3.42;;
23101;SDS011;11720;51.214;22.574;2023-07-31T03:07:06;4.93;;;3.40;;
23101;SDS011;11720;51.214;22.574;2023-07-31T03:09:32;4.60;;;3.15;;
23101;SDS011;11720;51.214;22.574;2023-07-31T03:11:57;3.53;;;3.22;;
23101;SDS011;11720;51.214;22.574;2023-07-31T03:14:23;6.00;;;3.38;;
23101;SDS011;11720;51.214;22.574;2023-07-31T03:16:51;5.35;;;3.40;;
23101;SDS011;11720;51.214;22.574;2023-07-31T03:19:17;4.55;;;3.10;;
23101;SDS011;11720;51.214;22.574;2023-07-31T03:21:42;2.85;;;2.55;;
23101;SDS011;11720;51.214;22.574;2023-07-31T03:24:08;4.82;;;3.33;;
23101;SDS011;11720;51.214;22.574;2023-07-31T03:26:33;5.55;;;3.33;;
23101;SDS011;11720;51.214;22.574;2023-07-31T03:29:00;5.20;;;3.03;;
23101;SDS011;11720;51.214;22.574;2023-07-31T03:31:25;3.50;;;2.65;;
23101;SDS011;11720;51.214;22.574;2023-07-31T03:33:51;3.70;;;3.22;;
23101;SDS011;11720;51.214;22.574;2023-07-31T03:36:17;4.95;;;3.03;;
23101;SDS011;11720;51.214;22.574;2023-07-31T03:38:43;3.10;;;2.45;;
23101;SDS011;11720;51.214;22.574;2023-07-31T03:41:09;3.45;;;2.78;;
23101;SDS011;11720;51.214;22.574;2023-07-31T03:43:35;2.92;;;2.70;;
23101;SDS011;11720;51.214;22.574;2023-07-31T03:46:01;3.97;;;2.88;;
23101;SDS011;11720;51.214;22.574;2023-07-31T03:48:27;3.00;;;2.55;;
23101;SDS011;11720;51.214;22.574;2023-07-31T03:50:53;5.43;;;3.05;;
23101;SDS011;11720;51.214;22.574;2023-07-31T03:53:19;3.05;;;2.38;;
23101;SDS011;11720;51.214;22.574;2023-07-31T03:55:44;3.30;;;2.70;;
23101;SDS011;11720;51.214;22.574;2023-07-31T03:58:10;4.75;;;2.95;;
23101;SDS011;11720;51.214;22.574;2023-07-31T04:00:36;3.70;;;2.78;;
23101;SDS011;11720;51.214;22.574;2023-07-31T04:03:02;5.32;;;2.85;;
23101;SDS011;11720;51.214;22.574;2023-07-31T04:05:29;3.88;;;2.78;;
23101;SDS011;11720;51.214;22.574;2023-07-31T04:07:56;3.33;;;2.85;;
23101;SDS011;11720;51.214;22.574;2023-07-31T04:10:22;3.95;;;2.65;;
23101;SDS011;11720;51.214;22.574;2023-07-31T04:12:48;3.40;;;2.50;;
23101;SDS011;11720;51.214;22.574;2023-07-31T04:15:13;4.13;;;2.72;;
23101;SDS011;11720;51.214;22.574;2023-07-31T04:17:39;4.72;;;3.10;;
23101;SDS011;11720;51.214;22.574;2023-07-31T04:20:05;4.07;;;2.85;;
23101;SDS011;11720;51.214;22.574;2023-07-31T04:22:31;3.67;;;2.45;;
23101;SDS011;11720;51.214;22.574;2023-07-31T04:24:56;4.88;;;2.58;;
23101;SDS011;11720;51.214;22.574;2023-07-31T04:27:22;2.78;;;2.35;;
23101;SDS011;11720;51.214;22.574;2023-07-31T04:29:48;3.10;;;2.40;;
23101;SDS011;11720;51.214;22.574;2023-07-31T04:32:13;3.22;;;2.60;;
23101;SDS011;11720;51.214;22.574;2023-07-31T04:34:41;3.75;;;2.88;;
23101;SDS011;11720;51.214;22.574;2023-07-31T04:37:07;4.03;;;2.30;;
23101;SDS011;11720;51.214;22.574;2023-07-31T04:39:33;3.17;;;2.55;;
23101;SDS011;11720;51.214;22.574;2023-07-31T04:41:59;3.97;;;2.72;;
23101;SDS011;11720;51.214;22.574;2023-07-31T04:44:25;4.22;;;2.72;;
23101;SDS011;11720;51.214;22.574;2023-07-31T04:46:51;4.63;;;2.78;;
23101;SDS011;11720;51.214;22.574;2023-07-31T04:49:17;11.45;;;3.28;;
23101;SDS011;11720;51.214;22.574;2023-07-31T04:51:43;4.75;;;2.50;;
23101;SDS011;11720;51.214;22.574;2023-07-31T04:54:09;5.82;;;2.80;;
23101;SDS011;11720;51.214;22.574;2023-07-31T04:56:34;6.65;;;3.67;;
23101;SDS011;11720;51.214;22.574;2023-07-31T04:59:00;3.83;;;2.72;;
23101;SDS011;11720;51.214;22.574;2023-07-31T05:01:26;3.53;;;2.72;;
23101;SDS011;11720;51.214;22.574;2023-07-31T05:03:52;3.10;;;2.50;;
23101;SDS011;11720;51.214;22.574;2023-07-31T05:06:17;7.38;;;2.70;;
23101;SDS011;11720;51.214;22.574;2023-07-31T05:08:43;2.58;;;2.38;;
23101;SDS011;11720;51.214;22.574;2023-07-31T05:11:09;3.45;;;2.83;;
23101;SDS011;11720;51.214;22.574;2023-07-31T05:13:35;3.92;;;2.53;;
23101;SDS011;11720;51.214;22.574;2023-07-31T05:16:00;3.33;;;2.80;;
23101;SDS011;11720;51.214;22.574;2023-07-31T05:18:26;2.78;;;2.47;;
23101;SDS011;11720;51.214;22.574;2023-07-31T05:20:51;3.03;;;2.20;;
23101;SDS011;11720;51.214;22.574;2023-07-31T05:23:17;3.30;;;2.75;;
23101;SDS011;11720;51.214;22.574;2023-07-31T05:25:43;2.90;;;2.20;;
23101;SDS011;11720;51.214;22.574;2023-07-31T05:28:09;2.42;;;2.22;;
23101;SDS011;11720;51.214;22.574;2023-07-31T05:30:34;4.20;;;2.75;;
23101;SDS011;11720;51.214;22.574;2023-07-31T05:33:00;3.00;;;2.33;;
23101;SDS011;11720;51.214;22.574;2023-07-31T05:35:26;2.55;;;2.35;;
23101;SDS011;11720;51.214;22.574;2023-07-31T05:37:51;2.85;;;2.50;;
23101;SDS011;11720;51.214;22.574;2023-07-31T05:40:17;5.68;;;2.53;;
23101;SDS011;11720;51.214;22.574;2023-07-31T05:42:43;3.53;;;2.78;;
23101;SDS011;11720;51.214;22.574;2023-07-31T05:45:09;3.47;;;2.67;;
23101;SDS011;11720;51.214;22.574;2023-07-31T05:47:35;3.83;;;2.50;;
23101;SDS011;11720;51.214;22.574;2023-07-31T05:50:01;3.58;;;2.33;;
23101;SDS011;11720;51.214;22.574;2023-07-31T05:52:27;5.18;;;2.75;;
23101;SDS011;11720;51.214;22.574;2023-07-31T05:54:54;4.60;;;3.08;;
23101;SDS011;11720;51.214;22.574;2023-07-31T05:57:20;5.50;;;2.92;;
23101;SDS011;11720;51.214;22.574;2023-07-31T05:59:46;2.78;;;2.25;;
23101;SDS011;11720;51.214;22.574;2023-07-31T06:02:12;2.33;;;2.13;;
23101;SDS011;11720;51.214;22.574;2023-07-31T06:04:38;4.47;;;2.88;;
23101;SDS011;11720;51.214;22.574;2023-07-31T06:07:04;3.85;;;2.38;;
23101;SDS011;11720;51.214;22.574;2023-07-31T06:09:30;4.75;;;2.90;;
23101;SDS011;11720;51.214;22.574;2023-07-31T06:11:56;2.83;;;2.40;;
23101;SDS011;11720;51.214;22.574;2023-07-31T06:14:22;3.08;;;2.40;;
23101;SDS011;11720;51.214;22.574;2023-07-31T06:16:48;4.15;;;2.60;;
23101;SDS011;11720;51.214;22.574;2023-07-31T06:19:14;4.15;;;2.65;;
23101;SDS011;11720;51.214;22.574;2023-07-31T06:21:39;3.90;;;2.92;;
23101;SDS011;11720;51.214;22.574;2023-07-31T06:24:07;4.90;;;2.65;;
23101;SDS011;11720;51.214;22.574;2023-07-31T06:26:33;5.05;;;3.13;;
23101;SDS011;11720;51.214;22.574;2023-07-31T06:28:59;3.22;;;2.85;;
23101;SDS011;11720;51.214;22.574;2023-07-31T06:31:25;5.15;;;3.05;;
23101;SDS011;11720;51.214;22.574;2023-07-31T06:33:51;3.42;;;2.53;;
23101;SDS011;11720;51.214;22.574;2023-07-31T06:36:19;3.28;;;2.42;;
23101;SDS011;11720;51.214;22.574;2023-07-31T06:38:45;2.90;;;2.38;;
23101;SDS011;11720;51.214;22.574;2023-07-31T06:41:11;4.45;;;2.67;;
23101;SDS011;11720;51.214;22.574;2023-07-31T06:43:37;3.17;;;2.50;;
23101;SDS011;11720;51.214;22.574;2023-07-31T06:46:06;5.70;;;2.60;;
23101;SDS011;11720;51.214;22.574;2023-07-31T06:48:32;5.15;;;2.70;;
23101;SDS011;11720;51.214;22.574;2023-07-31T06:50:59;3.97;;;2.58;;
23101;SDS011;11720;51.214;22.574;2023-07-31T06:53:25;2.97;;;2.60;;
23101;SDS011;11720;51.214;22.574;2023-07-31T06:55:51;5.57;;;2.40;;
23101;SDS011;11720;51.214;22.574;2023-07-31T06:58:17;5.65;;;2.85;;
23101;SDS011;11720;51.214;22.574;2023-07-31T07:00:42;4.05;;;1.92;;
23101;SDS011;11720;51.214;22.574;2023-07-31T07:03:09;3.13;;;2.33;;
23101;SDS011;11720;51.214;22.574;2023-07-31T07:05:34;5.47;;;3.47;;
23101;SDS011;11720;51.214;22.574;2023-07-31T07:08:00;3.45;;;2.50;;
23101;SDS011;11720;51.214;22.574;2023-07-31T07:10:26;2.58;;;2.20;;
23101;SDS011;11720;51.214;22.574;2023-07-31T07:12:52;3.45;;;2.60;;
23101;SDS011;11720;51.214;22.574;2023-07-31T07:15:20;3.25;;;2.42;;
23101;SDS011;11720;51.214;22.574;2023-07-31T07:17:46;2.35;;;1.95;;
23101;SDS011;11720;51.214;22.574;2023-07-31T07:20:12;3.28;;;2.03;;
23101;SDS011;11720;51.214;22.574;2023-07-31T07:22:38;2.60;;;2.10;;
23101;SDS011;11720;51.214;22.574;2023-07-31T07:25:04;4.47;;;2.60;;
23101;SDS011;11720;51.214;22.574;2023-07-31T07:27:37;2.72;;;2.17;;
23101;SDS011;11720;51.214;22.574;2023-07-31T07:30:03;2.60;;;2.08;;
23101;SDS011;11720;51.214;22.574;2023-07-31T07:32:32;2.38;;;2.00;;
23101;SDS011;11720;51.214;22.574;2023-07-31T07:34:58;3.40;;;2.58;;
23101;SDS011;11720;51.214;22.574;2023-07-31T07:37:23;3.75;;;2.63;;
23101;SDS011;11720;51.214;22.574;2023-07-31T07:39:50;5.05;;;2.40;;
23101;SDS011;11720;51.214;22.574;2023-07-31T07:42:15;4.55;;;2.38;;
23101;SDS011;11720;51.214;22.574;2023-07-31T07:44:41;3.28;;;2.03;;
23101;SDS011;11720;51.214;22.574;2023-07-31T07:47:07;4.30;;;2.17;;
23101;SDS011;11720;51.214;22.574;2023-07-31T07:49:34;3.53;;;2.40;;
23101;SDS011;11720;51.214;22.574;2023-07-31T07:52:00;2.17;;;1.65;;
23101;SDS011;11720;51.214;22.574;2023-07-31T07:54:26;4.35;;;2.15;;
23101;SDS011;11720;51.214;22.574;2023-07-31T07:56:52;3.35;;;2.53;;
23101;SDS011;11720;51.214;22.574;2023-07-31T07:59:18;3.75;;;2.05;;
23101;SDS011;11720;51.214;22.574;2023-07-31T08:01:45;2.65;;;2.00;;
23101;SDS011;11720;51.214;22.574;2023-07-31T08:04:10;2.60;;;2.40;;
23101;SDS011;11720;51.214;22.574;2023-07-31T08:06:44;2.63;;;2.03;;
23101;SDS011;11720;51.214;22.574;2023-07-31T08:09:10;3.22;;;2.45;;
23101;SDS011;11720;51.214;22.574;2023-07-31T08:11:41;3.13;;;2.55;;
23101;SDS011;11720;51.214;22.574;2023-07-31T08:14:07;3.00;;;2.33;;
23101;SDS011;11720;51.214;22.574;2023-07-31T08:16:43;2.30;;;2.08;;
23101;SDS011;11720;51.214;22.574;2023-07-31T08:19:16;5.43;;;2.38;;
23101;SDS011;11720;51.214;22.574;2023-07-31T08:21:42;3.38;;;2.80;;
23101;SDS011;11720;51.214;22.574;2023-07-31T08:24:08;5.72;;;2.30;;
23101;SDS011;11720;51.214;22.574;2023-07-31T08:26:43;2.63;;;2.03;;
23101;SDS011;11720;51.214;22.574;2023-07-31T08:29:10;4.63;;;2.30;;
23101;SDS011;11720;51.214;22.574;2023-07-31T08:31:35;2.72;;;2.30;;
23101;SDS011;11720;51.214;22.574;2023-07-31T08:34:04;5.20;;;2.40;;
23101;SDS011;11720;51.214;22.574;2023-07-31T08:36:30;3.55;;;2.78;;
23101;SDS011;11720;51.214;22.574;2023-07-31T08:38:59;2.97;;;2.38;;
23101;SDS011;11720;51.214;22.574;2023-07-31T08:41:27;2.80;;;2.15;;
23101;SDS011;11720;51.214;22.574;2023-07-31T08:43:53;1.77;;;1.55;;
23101;SDS011;11720;51.214;22.574;2023-07-31T08:46:22;2.47;;;2.17;;
23101;SDS011;11720;51.214;22.574;2023-07-31T08:48:51;3.53;;;2.20;;
23101;SDS011;11720;51.214;22.574;2023-07-31T08:51:30;3.95;;;2.38;;
23101;SDS011;11720;51.214;22.574;2023-07-31T08:53:56;3.67;;;2.05;;
23101;SDS011;11720;51.214;22.574;2023-07-31T08:56:22;3.08;;;2.03;;
23101;SDS011;11720;51.214;22.574;2023-07-31T08:58:50;3.45;;;1.77;;
23101;SDS011;11720;51.214;22.574;2023-07-31T09:01:19;3.75;;;2.03;;
23101;SDS011;11720;51.214;22.574;2023-07-31T09:03:47;3.53;;;2.10;;
23101;SDS011;11720;51.214;22.574;2023-07-31T09:06:30;1.95;;;1.55;;
23101;SDS011;11720;51.214;22.574;2023-07-31T09:09:36;2.10;;;1.73;;
23101;SDS011;11720;51.214;22.574;2023-07-31T09:12:02;1.70;;;1.60;;
23101;SDS011;11720;51.214;22.574;2023-07-31T09:14:28;2.35;;;1.73;;
23101;SDS011;11720;51.214;22.574;2023-07-31T09:16:56;1.88;;;1.67;;
23101;SDS011;11720;51.214;22.574;2023-07-31T09:19:34;2.33;;;1.83;;
23101;SDS011;11720;51.214;22.574;2023-07-31T09:22:03;2.08;;;1.88;;
23101;SDS011;11720;51.214;22.574;2023-07-31T09:24:30;6.78;;;2.95;;
23101;SDS011;11720;51.214;22.574;2023-07-31T09:26:58;4.05;;;1.95;;
23101;SDS011;11720;51.214;22.574;2023-07-31T09:29:25;2.03;;;1.80;;
23101;SDS011;11720;51.214;22.574;2023-07-31T09:31:52;3.20;;;2.13;;
23101;SDS011;11720;51.214;22.574;2023-07-31T09:34:19;3.20;;;1.75;;
23101;SDS011;11720;51.214;22.574;2023-07-31T09:36:46;3.60;;;2.30;;
23101;SDS011;11720;51.214;22.574;2023-07-31T09:39:14;2.90;;;2.08;;
23101;SDS011;11720;51.214;22.574;2023-07-31T09:41:46;5.50;;;2.00;;
23101;SDS011;11720;51.214;22.574;2023-07-31T09:44:18;5.90;;;2.10;;
23101;SDS011;11720;51.214;22.574;2023-07-31T09:46:45;3.97;;;2.30;;
23101;SDS011;11720;51.214;22.574;2023-07-31T09:49:11;4.55;;;2.00;;
23101;SDS011;11720;51.214;22.574;2023-07-31T09:51:41;2.90;;;1.90;;
23101;SDS011;11720;51.214;22.574;2023-07-31T09:54:11;2.20;;;1.92;;
23101;SDS011;11720;51.214;22.574;2023-07-31T09:56:44;2.33;;;1.50;;
23101;SDS011;11720;51.214;22.574;2023-07-31T09:59:13;1.63;;;1.45;;
23101;SDS011;11720;51.214;22.574;2023-07-31T10:01:42;2.40;;;1.73;;
23101;SDS011;11720;51.214;22.574;2023-07-31T10:04:11;2.42;;;1.85;;
23101;SDS011;11720;51.214;22.574;2023-07-31T10:06:38;2.60;;;1.88;;
23101;SDS011;11720;51.214;22.574;2023-07-31T10:09:06;1.73;;;1.60;;
23101;SDS011;11720;51.214;22.574;2023-07-31T10:11:35;5.13;;;1.60;;
23101;SDS011;11720;51.214;22.574;2023-07-31T10:14:04;2.97;;;1.80;;
23101;SDS011;11720;51.214;22.574;2023-07-31T10:16:31;1.95;;;1.63;;
23101;SDS011;11720;51.214;22.574;2023-07-31T10:18:57;2.78;;;2.05;;
23101;SDS011;11720;51.214;22.574;2023-07-31T10:21:26;3.28;;;1.88;;
23101;SDS011;11720;51.214;22.574;2023-07-31T10:23:52;3.40;;;1.77;;
23101;SDS011;11720;51.214;22.574;2023-07-31T10:26:19;1.60;;;1.40;;
23101;SDS011;11720;51.214;22.574;2023-07-31T10:28:47;2.83;;;1.80;;
23101;SDS011;11720;51.214;22.574;2023-07-31T10:31:13;1.83;;;1.60;;
23101;SDS011;11720;51.214;22.574;2023-07-31T10:33:40;1.92;;;1.58;;
23101;SDS011;11720;51.214;22.574;2023-07-31T10:36:13;2.88;;;1.75;;
23101;SDS011;11720;51.214;22.574;2023-07-31T10:38:41;2.67;;;1.92;;
23101;SDS011;11720;51.214;22.574;2023-07-31T10:41:10;3.00;;;2.10;;
23101;SDS011;11720;51.214;22.574;2023-07-31T10:43:37;1.83;;;1.50;;
23101;SDS011;11720;51.214;22.574;2023-07-31T10:46:06;2.60;;;1.65;;
23101;SDS011;11720;51.214;22.574;2023-07-31T10:48:36;9.60;;;1.80;;
23101;SDS011;11720;51.214;22.574;2023-07-31T10:51:12;3.03;;;1.70;;
23101;SDS011;11720;51.214;22.574;2023-07-31T10:53:39;2.40;;;1.63;;
23101;SDS011;11720;51.214;22.574;2023-07-31T10:56:07;2.33;;;1.50;;
23101;SDS011;11720;51.214;22.574;2023-07-31T10:58:34;3.25;;;1.63;;
23101;SDS011;11720;51.214;22.574;2023-07-31T11:01:04;3.05;;;1.73;;
23101;SDS011;11720;51.214;22.574;2023-07-31T11:03:49;4.78;;;1.70;;
23101;SDS011;11720;51.214;22.574;2023-07-31T11:06:18;2.47;;;1.63;;
23101;SDS011;11720;51.214;22.574;2023-07-31T11:08:48;1.50;;;1.40;;
23101;SDS011;11720;51.214;22.574;2023-07-31T11:11:16;1.70;;;1.55;;
23101;SDS011;11720;51.214;22.574;2023-07-31T11:13:43;3.03;;;1.75;;
23101;SDS011;11720;51.214;22.574;2023-07-31T11:16:14;1.70;;;1.50;;
23101;SDS011;11720;51.214;22.574;2023-07-31T11:18:40;2.50;;;1.80;;
23101;SDS011;11720;51.214;22.574;2023-07-31T11:21:13;1.30;;;1.17;;
23101;SDS011;11720;51.214;22.574;2023-07-31T11:23:52;2.33;;;1.70;;
23101;SDS011;11720;51.214;22.574;2023-07-31T11:26:22;5.30;;;1.70;;
23101;SDS011;11720;51.214;22.574;2023-07-31T11:28:49;2.63;;;1.60;;
23101;SDS011;11720;51.214;22.574;2023-07-31T11:31:16;2.08;;;1.73;;
23101;SDS011;11720;51.214;22.574;2023-07-31T11:33:49;2.20;;;1.38;;
23101;SDS011;11720;51.214;22.574;2023-07-31T11:36:31;5.55;;;2.58;;
23101;SDS011;11720;51.214;22.574;2023-07-31T11:39:04;2.30;;;1.63;;
23101;SDS011;11720;51.214;22.574;2023-07-31T11:41:31;2.05;;;1.50;;
23101;SDS011;11720;51.214;22.574;2023-07-31T11:44:01;1.40;;;1.30;;
23101;SDS011;11720;51.214;22.574;2023-07-31T11:46:27;4.63;;;1.60;;
23101;SDS011;11720;51.214;22.574;2023-07-31T11:49:01;2.05;;;1.25;;
23101;SDS011;11720;51.214;22.574;2023-07-31T11:51:27;3.00;;;1.40;;
23101;SDS011;11720;51.214;22.574;2023-07-31T11:53:57;1.50;;;1.40;;
23101;SDS011;11720;51.214;22.574;2023-07-31T11:56:25;1.73;;;1.33;;
23101;SDS011;11720;51.214;22.574;2023-07-31T11:58:57;1.85;;;1.63;;
23101;SDS011;11720;51.214;22.574;2023-07-31T12:01:24;1.67;;;1.45;;
23101;SDS011;11720;51.214;22.574;2023-07-31T12:03:52;1.75;;;1.60;;
23101;SDS011;11720;51.214;22.574;2023-07-31T12:06:19;1.67;;;1.50;;
23101;SDS011;11720;51.214;22.574;2023-07-31T12:08:46;1.67;;;1.58;;
23101;SDS011;11720;51.214;22.574;2023-07-31T12:11:12;2.92;;;1.48;;
23101;SDS011;11720;51.214;22.574;2023-07-31T12:13:42;1.95;;;1.40;;
23101;SDS011;11720;51.214;22.574;2023-07-31T12:16:08;1.65;;;1.55;;
23101;SDS011;11720;51.214;22.574;2023-07-31T12:18:36;2.92;;;1.67;;
23101;SDS011;11720;51.214;22.574;2023-07-31T12:21:04;2.03;;;1.65;;
23101;SDS011;11720;51.214;22.574;2023-07-31T12:23:31;1.95;;;1.45;;
23101;SDS011;11720;51.214;22.574;2023-07-31T12:26:02;4.60;;;2.15;;
23101;SDS011;11720;51.214;22.574;2023-07-31T12:31:17;2.72;;;1.50;;
23101;SDS011;11720;51.214;22.574;2023-07-31T12:33:50;2.25;;;1.55;;
23101;SDS011;11720;51.214;22.574;2023-07-31T12:36:17;2.67;;;1.55;;
23101;SDS011;11720;51.214;22.574;2023-07-31T12:38:54;6.32;;;1.98;;
23101;SDS011;11720;51.214;22.574;2023-07-31T12:41:22;2.03;;;1.35;;
23101;SDS011;11720;51.214;22.574;2023-07-31T12:43:47;2.08;;;1.23;;
23101;SDS011;11720;51.214;22.574;2023-07-31T12:46:13;1.73;;;1.42;;
23101;SDS011;11720;51.214;22.574;2023-07-31T12:48:40;3.08;;;1.48;;
23101;SDS011;11720;51.214;22.574;2023-07-31T12:51:06;2.28;;;1.48;;
23101;SDS011;11720;51.214;22.574;2023-07-31T12:53:32;3.70;;;1.70;;
23101;SDS011;11720;51.214;22.574;2023-07-31T12:55:58;2.45;;;1.60;;
23101;SDS011;11720;51.214;22.574;2023-07-31T12:58:24;2.15;;;1.40;;
23101;SDS011;11720;51.214;22.574;2023-07-31T13:00:51;1.42;;;1.33;;
23101;SDS011;11720;51.214;22.574;2023-07-31T13:03:17;3.92;;;1.65;;
23101;SDS011;11720;51.214;22.574;2023-07-31T13:05:43;2.97;;;1.95;;
23101;SDS011;11720;51.214;22.574;2023-07-31T13:08:09;1.30;;;1.15;;
23101;SDS011;11720;51.214;22.574;2023-07-31T13:10:35;1.80;;;1.55;;
23101;SDS011;11720;51.214;22.574;2023-07-31T13:13:01;3.70;;;1.70;;
23101;SDS011;11720;51.214;22.574;2023-07-31T13:15:27;2.05;;;1.55;;
23101;SDS011;11720;51.214;22.574;2023-07-31T13:17:53;2.13;;;1.50;;
23101;SDS011;11720;51.214;22.574;2023-07-31T13:20:19;1.65;;;1.30;;
23101;SDS011;11720;51.214;22.574;2023-07-31T13:22:45;2.85;;;1.45;;
23101;SDS011;11720;51.214;22.574;2023-07-31T13:25:11;2.03;;;1.27;;
23101;SDS011;11720;51.214;22.574;2023-07-31T13:27:37;1.60;;;1.23;;
23101;SDS011;11720;51.214;22.574;2023-07-31T13:30:04;1.98;;;1.42;;
23101;SDS011;11720;51.214;22.574;2023-07-31T13:32:30;1.85;;;1.20;;
23101;SDS011;11720;51.214;22.574;2023-07-31T13:34:56;1.55;;;1.17;;
23101;SDS011;11720;51.214;22.574;2023-07-31T13:37:22;1.17;;;1.05;;
23101;SDS011;11720;51.214;22.574;2023-07-31T13:39:50;1.98;;;1.40;;
23101;SDS011;11720;51.214;22.574;2023-07-31T13:42:21;1.20;;;1.02;;
23101;SDS011;11720;51.214;22.574;2023-07-31T13:44:47;3.67;;;1.10;;
23101;SDS011;11720;51.214;22.574;2023-07-31T13:47:13;1.60;;;1.23;;
23101;SDS011;11720;51.214;22.574;2023-07-31T13:49:40;1.88;;;0.88;;
23101;SDS011;11720;51.214;22.574;2023-07-31T13:52:08;1.33;;;1.05;;
23101;SDS011;11720;51.214;22.574;2023-07-31T13:54:34;1.70;;;0.93;;
23101;SDS011;11720;51.214;22.574;2023-07-31T13:57:00;1.35;;;1.08;;
23101;SDS011;11720;51.214;22.574;2023-07-31T13:59:26;2.08;;;1.20;;
23101;SDS011;11720;51.214;22.574;2023-07-31T14:01:52;1.48;;;1.10;;
23101;SDS011;11720;51.214;22.574;2023-07-31T14:04:19;1.52;;;1.23;;
23101;SDS011;11720;51.214;22.574;2023-07-31T14:06:45;1.33;;;1.23;;
23101;SDS011;11720;51.214;22.574;2023-07-31T14:09:13;1.65;;;1.17;;
23101;SDS011;11720;51.214;22.574;2023-07-31T14:11:39;1.23;;;1.13;;
23101;SDS011;11720;51.214;22.574;2023-07-31T14:14:05;1.20;;;1.10;;
23101;SDS011;11720;51.214;22.574;2023-07-31T14:16:31;1.50;;;1.30;;
23101;SDS011;11720;51.214;22.574;2023-07-31T14:18:57;2.03;;;1.23;;
23101;SDS011;11720;51.214;22.574;2023-07-31T14:21:24;1.10;;;0.98;;
23101;SDS011;11720;51.214;22.574;2023-07-31T14:23:51;1.40;;;1.10;;
23101;SDS011;11720;51.214;22.574;2023-07-31T14:26:16;6.28;;;1.45;;
23101;SDS011;11720;51.214;22.574;2023-07-31T14:28:42;1.70;;;1.20;;
23101;SDS011;11720;51.214;22.574;2023-07-31T14:31:09;1.60;;;1.10;;
23101;SDS011;11720;51.214;22.574;2023-07-31T14:33:35;2.40;;;1.38;;
23101;SDS011;11720;51.214;22.574;2023-07-31T14:36:00;2.55;;;1.17;;
23101;SDS011;11720;51.214;22.574;2023-07-31T14:38:26;1.77;;;1.30;;
23101;SDS011;11720;51.214;22.574;2023-07-31T14:40:52;3.55;;;1.55;;
23101;SDS011;11720;51.214;22.574;2023-07-31T14:43:18;2.13;;;1.40;;
23101;SDS011;11720;51.214;22.574;2023-07-31T14:45:44;1.70;;;1.60;;